sensor_id;sensor_type;location;lat;lon;timestamp;temperature;humidity
69006;SHT31;56061;51.748;19.620;2023-09-08T00:02:11;14.15;80.03
69006;SHT31;56061;51.748;19.620;2023-09-08T00:04:38;14.16;80.59
69006;SHT31;56061;51.748;19.620;2023-09-08T00:07:05;14.19;80.62
69006;SHT31;56061;51.748;19.620;2023-09-08T00:09:31;14.16;80.15
69006;SHT31;56061;51.748;19.620;2023-09-08T00:11:58;14.11;80.25
69006;SHT31;56061;51.748;19.620;2023-09-08T00:14:25;14.08;80.26
69006;SHT31;56061;51.748;19.620;2023-09-08T00:16:51;14.04;80.02
69006;SHT31;56061;51.748;19.620;2023-09-08T00:19:22;14.00;79.97
69006;SHT31;56061;51.748;19.620;2023-09-08T00:21:50;13.97;79.69
69006;SHT31;56061;51.748;19.620;2023-09-08T00:24:16;13.96;79.93
69006;SHT31;56061;51.748;19.620;2023-09-08T00:26:44;13.98;80.54
69006;SHT31;56061;51.748;19.620;2023-09-08T00:29:11;13.97;80.26
69006;SHT31;56061;51.748;19.620;2023-09-08T00:31:38;13.94;79.80
69006;SHT31;56061;51.748;19.620;2023-09-08T00:34:04;13.90;79.64
69006;SHT31;56061;51.748;19.620;2023-09-08T00:36:33;13.89;79.57
69006;SHT31;56061;51.748;19.620;2023-09-08T00:38:59;13.90;79.69
69006;SHT31;56061;51.748;19.620;2023-09-08T00:41:26;13.94;80.52
69006;SHT31;56061;51.748;19.620;2023-09-08T00:43:52;13.98;80.98
69006;SHT31;56061;51.748;19.620;2023-09-08T00:46:19;14.02;81.09
69006;SHT31;56061;51.748;19.620;2023-09-08T00:48:45;14.01;80.32
69006;SHT31;56061;51.748;19.620;2023-09-08T00:51:12;14.00;80.21
69006;SHT31;56061;51.748;19.620;2023-09-08T00:53:38;13.97;80.10
69006;SHT31;56061;51.748;19.620;2023-09-08T00:56:05;13.94;79.94
69006;SHT31;56061;51.748;19.620;2023-09-08T00:58:35;13.94;80.07
69006;SHT31;56061;51.748;19.620;2023-09-08T01:01:03;13.94;80.69
69006;SHT31;56061;51.748;19.620;2023-09-08T01:03:32;13.94;80.60
69006;SHT31;56061;51.748;19.620;2023-09-08T01:05:59;13.87;80.06
69006;SHT31;56061;51.748;19.620;2023-09-08T01:08:26;13.78;79.90
69006;SHT31;56061;51.748;19.620;2023-09-08T01:10:54;13.72;79.95
69006;SHT31;56061;51.748;19.620;2023-09-08T01:13:22;13.67;79.79
69006;SHT31;56061;51.748;19.620;2023-09-08T01:15:49;13.63;79.74
69006;SHT31;56061;51.748;19.620;2023-09-08T01:18:15;13.62;79.81
69006;SHT31;56061;51.748;19.620;2023-09-08T01:26:39;13.51;80.23
69006;SHT31;56061;51.748;19.620;2023-09-08T01:29:08;13.50;80.29
69006;SHT31;56061;51.748;19.620;2023-09-08T01:31:36;13.49;80.26
69006;SHT31;56061;51.748;19.620;2023-09-08T01:34:04;13.49;80.44
69006;SHT31;56061;51.748;19.620;2023-09-08T01:36:34;13.49;80.82
69006;SHT31;56061;51.748;19.620;2023-09-08T01:39:01;13.51;80.84
69006;SHT31;56061;51.748;19.620;2023-09-08T01:41:29;13.49;80.88
69006;SHT31;56061;51.748;19.620;2023-09-08T01:43:57;13.46;80.68
69006;SHT31;56061;51.748;19.620;2023-09-08T01:46:24;13.47;80.81
69006;SHT31;56061;51.748;19.620;2023-09-08T01:48:51;13.46;80.72
69006;SHT31;56061;51.748;19.620;2023-09-08T01:51:18;13.46;80.74
69006;SHT31;56061;51.748;19.620;2023-09-08T01:53:44;13.42;80.34
69006;SHT31;56061;51.748;19.620;2023-09-08T01:56:11;13.40;80.32
69006;SHT31;56061;51.748;19.620;2023-09-08T01:58:37;13.38;80.29
69006;SHT31;56061;51.748;19.620;2023-09-08T02:01:04;13.37;80.78
69006;SHT31;56061;51.748;19.620;2023-09-08T02:03:32;13.35;81.18
69006;SHT31;56061;51.748;19.620;2023-09-08T02:05:59;13.35;81.33
69006;SHT31;56061;51.748;19.620;2023-09-08T02:08:26;13.36;81.85
69006;SHT31;56061;51.748;19.620;2023-09-08T02:10:52;13.40;82.16
69006;SHT31;56061;51.748;19.620;2023-09-08T02:13:19;13.42;81.26
69006;SHT31;56061;51.748;19.620;2023-09-08T02:15:45;13.45;81.12
69006;SHT31;56061;51.748;19.620;2023-09-08T02:18:12;13.43;81.15
69006;SHT31;56061;51.748;19.620;2023-09-08T02:20:39;13.46;81.84
69006;SHT31;56061;51.748;19.620;2023-09-08T02:23:07;13.42;81.63
69006;SHT31;56061;51.748;19.620;2023-09-08T02:25:33;13.35;81.06
69006;SHT31;56061;51.748;19.620;2023-09-08T02:28:00;13.27;81.06
69006;SHT31;56061;51.748;19.620;2023-09-08T02:30:26;13.23;81.23
69006;SHT31;56061;51.748;19.620;2023-09-08T02:32:53;13.17;80.88
69006;SHT31;56061;51.748;19.620;2023-09-08T02:35:23;13.13;80.80
69006;SHT31;56061;51.748;19.620;2023-09-08T02:37:51;13.12;80.86
69006;SHT31;56061;51.748;19.620;2023-09-08T02:40:17;13.12;81.31
69006;SHT31;56061;51.748;19.620;2023-09-08T02:42:45;13.16;81.74
69006;SHT31;56061;51.748;19.620;2023-09-08T02:45:11;13.17;81.51
69006;SHT31;56061;51.748;19.620;2023-09-08T02:47:38;13.15;80.90
69006;SHT31;56061;51.748;19.620;2023-09-08T02:50:05;13.13;80.78
69006;SHT31;56061;51.748;19.620;2023-09-08T02:52:31;13.11;80.64
69006;SHT31;56061;51.748;19.620;2023-09-08T02:54:58;13.07;80.63
69006;SHT31;56061;51.748;19.620;2023-09-08T02:57:24;13.04;80.54
69006;SHT31;56061;51.748;19.620;2023-09-08T02:59:51;13.00;80.34
69006;SHT31;56061;51.748;19.620;2023-09-08T03:02:17;12.98;80.55
69006;SHT31;56061;51.748;19.620;2023-09-08T03:04:44;12.99;80.89
69006;SHT31;56061;51.748;19.620;2023-09-08T03:07:11;13.00;81.12
69006;SHT31;56061;51.748;19.620;2023-09-08T03:09:37;13.00;81.22
69006;SHT31;56061;51.748;19.620;2023-09-08T03:12:04;12.99;80.82
69006;SHT31;56061;51.748;19.620;2023-09-08T03:14:30;12.97;80.79
69006;SHT31;56061;51.748;19.620;2023-09-08T03:16:57;12.99;80.79
69006;SHT31;56061;51.748;19.620;2023-09-08T03:19:23;12.99;81.27
69006;SHT31;56061;51.748;19.620;2023-09-08T03:21:50;12.99;81.28
69006;SHT31;56061;51.748;19.620;2023-09-08T03:24:16;12.96;80.91
69006;SHT31;56061;51.748;19.620;2023-09-08T03:26:43;12.93;80.79
69006;SHT31;56061;51.748;19.620;2023-09-08T03:29:09;12.89;80.77
69006;SHT31;56061;51.748;19.620;2023-09-08T03:31:36;12.88;80.82
69006;SHT31;56061;51.748;19.620;2023-09-08T03:34:02;12.90;80.83
69006;SHT31;56061;51.748;19.620;2023-09-08T03:36:29;12.88;80.90
69006;SHT31;56061;51.748;19.620;2023-09-08T03:38:57;12.88;80.96
69006;SHT31;56061;51.748;19.620;2023-09-08T03:41:24;12.86;80.66
69006;SHT31;56061;51.748;19.620;2023-09-08T03:43:51;12.85;80.80
69006;SHT31;56061;51.748;19.620;2023-09-08T03:46:17;12.84;81.26
69006;SHT31;56061;51.748;19.620;2023-09-08T03:48:44;12.82;81.36
69006;SHT31;56061;51.748;19.620;2023-09-08T03:51:10;12.80;81.47
69006;SHT31;56061;51.748;19.620;2023-09-08T03:53:36;12.80;81.55
69006;SHT31;56061;51.748;19.620;2023-09-08T03:56:03;12.79;81.14
69006;SHT31;56061;51.748;19.620;2023-09-08T03:58:29;12.78;80.97
69006;SHT31;56061;51.748;19.620;2023-09-08T04:00:56;12.76;80.99
69006;SHT31;56061;51.748;19.620;2023-09-08T04:03:22;12.76;81.06
69006;SHT31;56061;51.748;19.620;2023-09-08T04:05:49;12.74;80.78
69006;SHT31;56061;51.748;19.620;2023-09-08T04:08:15;12.70;80.60
69006;SHT31;56061;51.748;19.620;2023-09-08T04:10:42;12.68;80.81
69006;SHT31;56061;51.748;19.620;2023-09-08T04:13:08;12.68;80.79
69006;SHT31;56061;51.748;19.620;2023-09-08T04:15:35;12.66;80.60
69006;SHT31;56061;51.748;19.620;2023-09-08T04:18:01;12.65;80.67
69006;SHT31;56061;51.748;19.620;2023-09-08T04:20:28;12.66;80.71
69006;SHT31;56061;51.748;19.620;2023-09-08T04:22:55;12.65;80.82
69006;SHT31;56061;51.748;19.620;2023-09-08T04:25:21;12.65;80.90
69006;SHT31;56061;51.748;19.620;2023-09-08T04:27:48;12.65;80.94
69006;SHT31;56061;51.748;19.620;2023-09-08T04:30:14;12.64;80.93
69006;SHT31;56061;51.748;19.620;2023-09-08T04:32:41;12.63;81.09
69006;SHT31;56061;51.748;19.620;2023-09-08T04:35:08;12.65;81.34
69006;SHT31;56061;51.748;19.620;2023-09-08T04:37:34;12.66;81.31
69006;SHT31;56061;51.748;19.620;2023-09-08T04:40:02;12.68;81.37
69006;SHT31;56061;51.748;19.620;2023-09-08T04:42:30;12.69;81.34
69006;SHT31;56061;51.748;19.620;2023-09-08T04:44:57;12.73;81.46
69006;SHT31;56061;51.748;19.620;2023-09-08T04:47:23;12.78;81.59
69006;SHT31;56061;51.748;19.620;2023-09-08T04:49:50;12.83;81.60
69006;SHT31;56061;51.748;19.620;2023-09-08T04:52:16;12.86;81.60
69006;SHT31;56061;51.748;19.620;2023-09-08T04:54:43;12.89;81.58
69006;SHT31;56061;51.748;19.620;2023-09-08T04:57:10;12.92;81.60
69006;SHT31;56061;51.748;19.620;2023-09-08T04:59:36;12.98;81.59
69006;SHT31;56061;51.748;19.620;2023-09-08T05:02:05;13.03;81.73
69006;SHT31;56061;51.748;19.620;2023-09-08T05:04:31;13.11;81.91
69006;SHT31;56061;51.748;19.620;2023-09-08T05:06:58;13.20;82.05
69006;SHT31;56061;51.748;19.620;2023-09-08T05:09:24;13.29;82.19
69006;SHT31;56061;51.748;19.620;2023-09-08T05:11:51;13.40;82.26
69006;SHT31;56061;51.748;19.620;2023-09-08T05:14:17;13.49;82.20
69006;SHT31;56061;51.748;19.620;2023-09-08T05:16:44;13.58;82.32
69006;SHT31;56061;51.748;19.620;2023-09-08T05:19:16;13.70;82.48
69006;SHT31;56061;51.748;19.620;2023-09-08T05:21:42;13.79;82.63
69006;SHT31;56061;51.748;19.620;2023-09-08T05:24:09;13.87;82.76
69006;SHT31;56061;51.748;19.620;2023-09-08T05:26:36;13.95;82.87
69006;SHT31;56061;51.748;19.620;2023-09-08T05:29:04;14.05;82.94
69006;SHT31;56061;51.748;19.620;2023-09-08T05:31:31;14.15;82.98
69006;SHT31;56061;51.748;19.620;2023-09-08T05:33:58;14.26;82.97
69006;SHT31;56061;51.748;19.620;2023-09-08T05:36:24;14.38;83.08
69006;SHT31;56061;51.748;19.620;2023-09-08T05:38:51;14.49;83.36
69006;SHT31;56061;51.748;19.620;2023-09-08T05:41:17;14.60;83.54
69006;SHT31;56061;51.748;19.620;2023-09-08T05:43:44;14.72;83.66
69006;SHT31;56061;51.748;19.620;2023-09-08T05:46:11;14.86;83.83
69006;SHT31;56061;51.748;19.620;2023-09-08T05:48:36;14.98;83.87
69006;SHT31;56061;51.748;19.620;2023-09-08T05:51:03;15.11;83.79
69006;SHT31;56061;51.748;19.620;2023-09-08T05:53:31;15.24;83.82
69006;SHT31;56061;51.748;19.620;2023-09-08T05:55:57;15.38;83.86
69006;SHT31;56061;51.748;19.620;2023-09-08T05:58:24;15.52;83.84
69006;SHT31;56061;51.748;19.620;2023-09-08T06:00:53;15.64;83.97
69006;SHT31;56061;51.748;19.620;2023-09-08T06:03:20;15.78;83.81
69006;SHT31;56061;51.748;19.620;2023-09-08T06:05:47;15.91;83.83
69006;SHT31;56061;51.748;19.620;2023-09-08T06:08:13;16.05;83.79
69006;SHT31;56061;51.748;19.620;2023-09-08T06:10:40;16.19;83.70
69006;SHT31;56061;51.748;19.620;2023-09-08T06:13:06;16.35;83.65
69006;SHT31;56061;51.748;19.620;2023-09-08T06:15:34;16.53;83.51
69006;SHT31;56061;51.748;19.620;2023-09-08T06:18:00;16.71;83.14
69006;SHT31;56061;51.748;19.620;2023-09-08T06:20:27;16.89;82.84
69006;SHT31;56061;51.748;19.620;2023-09-08T06:22:53;17.08;82.57
69006;SHT31;56061;51.748;19.620;2023-09-08T06:25:20;17.26;82.55
69006;SHT31;56061;51.748;19.620;2023-09-08T06:27:47;17.45;82.57
69006;SHT31;56061;51.748;19.620;2023-09-08T06:30:13;17.62;82.07
69006;SHT31;56061;51.748;19.620;2023-09-08T06:32:42;17.75;81.49
69006;SHT31;56061;51.748;19.620;2023-09-08T06:35:09;17.88;81.49
69006;SHT31;56061;51.748;19.620;2023-09-08T06:37:36;18.02;81.90
69006;SHT31;56061;51.748;19.620;2023-09-08T06:40:04;18.17;81.85
69006;SHT31;56061;51.748;19.620;2023-09-08T06:42:32;18.33;81.44
69006;SHT31;56061;51.748;19.620;2023-09-08T06:44:59;18.48;80.63
69006;SHT31;56061;51.748;19.620;2023-09-08T06:47:26;18.64;80.16
69006;SHT31;56061;51.748;19.620;2023-09-08T06:49:52;18.78;79.79
69006;SHT31;56061;51.748;19.620;2023-09-08T06:52:19;18.91;79.38
69006;SHT31;56061;51.748;19.620;2023-09-08T06:54:46;19.02;79.02
69006;SHT31;56061;51.748;19.620;2023-09-08T06:57:13;19.14;78.77
69006;SHT31;56061;51.748;19.620;2023-09-08T06:59:40;19.22;78.49
69006;SHT31;56061;51.748;19.620;2023-09-08T07:02:07;19.29;78.17
69006;SHT31;56061;51.748;19.620;2023-09-08T07:04:34;19.38;78.03
69006;SHT31;56061;51.748;19.620;2023-09-08T07:07:00;19.48;77.71
69006;SHT31;56061;51.748;19.620;2023-09-08T07:09:36;19.58;77.33
69006;SHT31;56061;51.748;19.620;2023-09-08T07:12:03;19.69;77.21
69006;SHT31;56061;51.748;19.620;2023-09-08T07:14:31;19.81;77.05
69006;SHT31;56061;51.748;19.620;2023-09-08T07:16:58;19.94;76.92
69006;SHT31;56061;51.748;19.620;2023-09-08T07:19:25;20.07;77.10
69006;SHT31;56061;51.748;19.620;2023-09-08T07:21:53;20.18;77.43
69006;SHT31;56061;51.748;19.620;2023-09-08T07:24:20;20.30;77.46
69006;SHT31;56061;51.748;19.620;2023-09-08T07:26:47;20.41;77.13
69006;SHT31;56061;51.748;19.620;2023-09-08T07:29:14;20.52;76.52
69006;SHT31;56061;51.748;19.620;2023-09-08T07:31:40;20.65;76.14
69006;SHT31;56061;51.748;19.620;2023-09-08T07:34:07;20.78;75.76
69006;SHT31;56061;51.748;19.620;2023-09-08T07:36:35;20.90;75.48
69006;SHT31;56061;51.748;19.620;2023-09-08T07:39:03;21.01;75.07
69006;SHT31;56061;51.748;19.620;2023-09-08T07:41:29;21.10;74.47
69006;SHT31;56061;51.748;19.620;2023-09-08T07:43:56;21.19;74.11
69006;SHT31;56061;51.748;19.620;2023-09-08T07:46:23;21.28;73.90
69006;SHT31;56061;51.748;19.620;2023-09-08T07:48:49;21.35;73.63
69006;SHT31;56061;51.748;19.620;2023-09-08T07:51:16;21.41;73.28
69006;SHT31;56061;51.748;19.620;2023-09-08T07:53:43;21.48;73.09
69006;SHT31;56061;51.748;19.620;2023-09-08T07:56:09;21.56;72.90
69006;SHT31;56061;51.748;19.620;2023-09-08T07:58:36;21.66;72.70
69006;SHT31;56061;51.748;19.620;2023-09-08T08:01:04;21.75;72.57
69006;SHT31;56061;51.748;19.620;2023-09-08T08:03:30;21.85;72.17
69006;SHT31;56061;51.748;19.620;2023-09-08T08:05:57;21.95;72.06
69006;SHT31;56061;51.748;19.620;2023-09-08T08:08:24;22.09;71.85
69006;SHT31;56061;51.748;19.620;2023-09-08T08:10:51;22.23;71.55
69006;SHT31;56061;51.748;19.620;2023-09-08T08:13:17;22.33;70.98
69006;SHT31;56061;51.748;19.620;2023-09-08T08:15:44;22.37;70.32
69006;SHT31;56061;51.748;19.620;2023-09-08T08:18:13;22.44;69.73
69006;SHT31;56061;51.748;19.620;2023-09-08T08:20:40;22.51;69.83
69006;SHT31;56061;51.748;19.620;2023-09-08T08:23:07;22.56;69.70
69006;SHT31;56061;51.748;19.620;2023-09-08T08:25:34;22.62;69.57
69006;SHT31;56061;51.748;19.620;2023-09-08T08:28:01;22.68;69.24
69006;SHT31;56061;51.748;19.620;2023-09-08T08:30:27;22.74;68.74
69006;SHT31;56061;51.748;19.620;2023-09-08T08:32:54;22.79;68.13
69006;SHT31;56061;51.748;19.620;2023-09-08T08:35:21;22.83;67.40
69006;SHT31;56061;51.748;19.620;2023-09-08T08:37:48;22.88;67.60
69006;SHT31;56061;51.748;19.620;2023-09-08T08:40:14;22.96;67.63
69006;SHT31;56061;51.748;19.620;2023-09-08T08:42:41;23.04;67.33
69006;SHT31;56061;51.748;19.620;2023-09-08T08:45:11;23.12;66.58
69006;SHT31;56061;51.748;19.620;2023-09-08T08:47:36;23.19;66.19
69006;SHT31;56061;51.748;19.620;2023-09-08T08:50:04;23.27;66.03
69006;SHT31;56061;51.748;19.620;2023-09-08T08:52:36;23.33;65.81
69006;SHT31;56061;51.748;19.620;2023-09-08T08:55:04;23.42;64.80
69006;SHT31;56061;51.748;19.620;2023-09-08T08:57:32;23.49;64.73
69006;SHT31;56061;51.748;19.620;2023-09-08T09:00:00;23.57;64.20
69006;SHT31;56061;51.748;19.620;2023-09-08T09:02:28;23.62;63.81
69006;SHT31;56061;51.748;19.620;2023-09-08T09:04:55;23.69;63.14
69006;SHT31;56061;51.748;19.620;2023-09-08T09:07:22;23.80;62.62
69006;SHT31;56061;51.748;19.620;2023-09-08T09:09:50;23.88;62.12
69006;SHT31;56061;51.748;19.620;2023-09-08T09:12:18;23.94;61.92
69006;SHT31;56061;51.748;19.620;2023-09-08T09:14:45;24.01;61.44
69006;SHT31;56061;51.748;19.620;2023-09-08T09:17:15;24.08;61.19
69006;SHT31;56061;51.748;19.620;2023-09-08T09:19:41;24.15;60.86
69006;SHT31;56061;51.748;19.620;2023-09-08T09:22:08;24.27;60.49
69006;SHT31;56061;51.748;19.620;2023-09-08T09:24:39;24.38;59.32
69006;SHT31;56061;51.748;19.620;2023-09-08T09:27:10;24.45;59.31
69006;SHT31;56061;51.748;19.620;2023-09-08T09:29:43;24.53;58.55
69006;SHT31;56061;51.748;19.620;2023-09-08T09:32:16;24.59;58.42
69006;SHT31;56061;51.748;19.620;2023-09-08T09:34:49;24.67;58.47
69006;SHT31;56061;51.748;19.620;2023-09-08T09:37:23;24.76;58.12
69006;SHT31;56061;51.748;19.620;2023-09-08T09:39:50;24.80;58.21
69006;SHT31;56061;51.748;19.620;2023-09-08T09:42:21;24.81;58.28
69006;SHT31;56061;51.748;19.620;2023-09-08T09:44:49;24.79;58.00
69006;SHT31;56061;51.748;19.620;2023-09-08T09:47:18;24.80;57.69
69006;SHT31;56061;51.748;19.620;2023-09-08T09:49:46;24.82;57.53
69006;SHT31;56061;51.748;19.620;2023-09-08T09:52:20;24.85;55.81
69006;SHT31;56061;51.748;19.620;2023-09-08T09:54:57;24.89;55.09
69006;SHT31;56061;51.748;19.620;2023-09-08T09:57:24;24.94;54.78
69006;SHT31;56061;51.748;19.620;2023-09-08T09:59:51;25.01;53.77
69006;SHT31;56061;51.748;19.620;2023-09-08T10:02:20;25.06;52.27
69006;SHT31;56061;51.748;19.620;2023-09-08T10:04:49;25.10;53.16
69006;SHT31;56061;51.748;19.620;2023-09-08T10:07:17;25.14;53.50
69006;SHT31;56061;51.748;19.620;2023-09-08T10:09:45;25.16;52.30
69006;SHT31;56061;51.748;19.620;2023-09-08T10:12:13;25.12;52.21
69006;SHT31;56061;51.748;19.620;2023-09-08T10:14:42;25.10;52.63
69006;SHT31;56061;51.748;19.620;2023-09-08T10:17:11;25.11;52.81
69006;SHT31;56061;51.748;19.620;2023-09-08T10:19:38;25.15;52.68
69006;SHT31;56061;51.748;19.620;2023-09-08T10:22:12;25.14;52.26
69006;SHT31;56061;51.748;19.620;2023-09-08T10:24:46;25.08;52.84
69006;SHT31;56061;51.748;19.620;2023-09-08T10:27:14;25.13;53.60
69006;SHT31;56061;51.748;19.620;2023-09-08T10:29:41;25.17;53.09
69006;SHT31;56061;51.748;19.620;2023-09-08T10:32:08;25.22;53.33
69006;SHT31;56061;51.748;19.620;2023-09-08T10:34:36;25.29;52.85
69006;SHT31;56061;51.748;19.620;2023-09-08T10:37:17;25.33;52.24
69006;SHT31;56061;51.748;19.620;2023-09-08T10:39:38;25.38;53.14
69006;SHT31;56061;51.748;19.620;2023-09-08T10:44:38;25.51;52.84
69006;SHT31;56061;51.748;19.620;2023-09-08T10:47:05;25.58;52.66
69006;SHT31;56061;51.748;19.620;2023-09-08T10:49:34;25.58;51.85
69006;SHT31;56061;51.748;19.620;2023-09-08T10:52:07;25.58;51.88
69006;SHT31;56061;51.748;19.620;2023-09-08T10:54:41;25.60;51.66
69006;SHT31;56061;51.748;19.620;2023-09-08T10:59:38;25.72;52.78
69006;SHT31;56061;51.748;19.620;2023-09-08T11:02:05;25.79;52.57
69006;SHT31;56061;51.748;19.620;2023-09-08T11:04:31;25.87;51.54
69006;SHT31;56061;51.748;19.620;2023-09-08T11:07:03;25.92;51.86
69006;SHT31;56061;51.748;19.620;2023-09-08T11:09:34;26.00;51.52
69006;SHT31;56061;51.748;19.620;2023-09-08T11:12:02;26.08;52.12
69006;SHT31;56061;51.748;19.620;2023-09-08T11:14:31;26.14;51.66
69006;SHT31;56061;51.748;19.620;2023-09-08T11:16:57;26.18;50.82
69006;SHT31;56061;51.748;19.620;2023-09-08T11:19:49;26.15;51.05
69006;SHT31;56061;51.748;19.620;2023-09-08T11:22:17;26.21;51.66
69006;SHT31;56061;51.748;19.620;2023-09-08T11:24:44;26.26;51.81
69006;SHT31;56061;51.748;19.620;2023-09-08T11:27:11;26.30;51.32
69006;SHT31;56061;51.748;19.620;2023-09-08T11:29:37;26.33;51.58
69006;SHT31;56061;51.748;19.620;2023-09-08T11:32:07;26.35;50.77
69006;SHT31;56061;51.748;19.620;2023-09-08T11:34:34;26.35;49.89
69006;SHT31;56061;51.748;19.620;2023-09-08T11:37:08;26.33;50.55
69006;SHT31;56061;51.748;19.620;2023-09-08T11:39:40;26.36;50.73
69006;SHT31;56061;51.748;19.620;2023-09-08T11:42:07;26.33;50.03
69006;SHT31;56061;51.748;19.620;2023-09-08T11:44:36;26.31;50.19
69006;SHT31;56061;51.748;19.620;2023-09-08T11:47:03;26.33;50.83
69006;SHT31;56061;51.748;19.620;2023-09-08T11:49:33;26.42;51.17
69006;SHT31;56061;51.748;19.620;2023-09-08T11:52:04;26.53;51.01
69006;SHT31;56061;51.748;19.620;2023-09-08T11:54:33;26.60;50.99
69006;SHT31;56061;51.748;19.620;2023-09-08T11:57:03;26.67;50.68
69006;SHT31;56061;51.748;19.620;2023-09-08T11:59:32;26.70;49.83
69006;SHT31;56061;51.748;19.620;2023-09-08T12:02:00;26.67;49.65
69006;SHT31;56061;51.748;19.620;2023-09-08T12:04:27;26.68;49.89
69006;SHT31;56061;51.748;19.620;2023-09-08T12:06:54;26.71;49.94
69006;SHT31;56061;51.748;19.620;2023-09-08T12:09:24;26.74;50.18
69006;SHT31;56061;51.748;19.620;2023-09-08T12:11:51;26.80;50.11
69006;SHT31;56061;51.748;19.620;2023-09-08T12:14:17;26.87;49.80
69006;SHT31;56061;51.748;19.620;2023-09-08T12:16:44;26.88;48.73
69006;SHT31;56061;51.748;19.620;2023-09-08T12:21:55;26.80;48.36
69006;SHT31;56061;51.748;19.620;2023-09-08T12:27:15;26.82;48.12
69006;SHT31;56061;51.748;19.620;2023-09-08T12:29:56;26.81;48.36
69006;SHT31;56061;51.748;19.620;2023-09-08T12:32:30;26.83;48.74
69006;SHT31;56061;51.748;19.620;2023-09-08T12:34:58;26.86;49.15
69006;SHT31;56061;51.748;19.620;2023-09-08T12:37:29;26.93;49.04
69006;SHT31;56061;51.748;19.620;2023-09-08T12:39:58;26.94;48.92
69006;SHT31;56061;51.748;19.620;2023-09-08T12:42:27;26.96;48.71
69006;SHT31;56061;51.748;19.620;2023-09-08T12:45:16;27.05;49.21
69006;SHT31;56061;51.748;19.620;2023-09-08T12:47:44;27.16;49.03
69006;SHT31;56061;51.748;19.620;2023-09-08T12:50:11;27.27;48.73
69006;SHT31;56061;51.748;19.620;2023-09-08T12:52:51;27.36;48.32
69006;SHT31;56061;51.748;19.620;2023-09-08T12:55:17;27.44;48.40
69006;SHT31;56061;51.748;19.620;2023-09-08T12:57:44;27.50;47.83
69006;SHT31;56061;51.748;19.620;2023-09-08T13:00:11;27.56;47.93
69006;SHT31;56061;51.748;19.620;2023-09-08T13:02:37;27.61;47.90
69006;SHT31;56061;51.748;19.620;2023-09-08T13:05:09;27.64;48.04
69006;SHT31;56061;51.748;19.620;2023-09-08T13:07:36;27.69;47.87
69006;SHT31;56061;51.748;19.620;2023-09-08T13:10:03;27.78;48.18
69006;SHT31;56061;51.748;19.620;2023-09-08T13:12:30;27.87;47.76
69006;SHT31;56061;51.748;19.620;2023-09-08T13:14:57;27.95;47.69
69006;SHT31;56061;51.748;19.620;2023-09-08T13:17:24;28.01;47.50
69006;SHT31;56061;51.748;19.620;2023-09-08T13:19:50;28.00;47.16
69006;SHT31;56061;51.748;19.620;2023-09-08T13:22:17;27.99;46.69
69006;SHT31;56061;51.748;19.620;2023-09-08T13:24:44;27.99;46.72
69006;SHT31;56061;51.748;19.620;2023-09-08T13:27:10;28.01;45.99
69006;SHT31;56061;51.748;19.620;2023-09-08T13:29:37;28.00;45.71
69006;SHT31;56061;51.748;19.620;2023-09-08T13:32:04;28.01;46.02
69006;SHT31;56061;51.748;19.620;2023-09-08T13:34:37;28.06;46.54
69006;SHT31;56061;51.748;19.620;2023-09-08T13:37:05;28.08;46.78
69006;SHT31;56061;51.748;19.620;2023-09-08T13:39:32;28.07;46.59
69006;SHT31;56061;51.748;19.620;2023-09-08T13:41:59;28.09;46.40
69006;SHT31;56061;51.748;19.620;2023-09-08T13:44:27;28.06;46.10
69006;SHT31;56061;51.748;19.620;2023-09-08T13:47:03;28.11;46.35
69006;SHT31;56061;51.748;19.620;2023-09-08T13:49:31;28.19;46.41
69006;SHT31;56061;51.748;19.620;2023-09-08T13:51:58;28.29;46.38
69006;SHT31;56061;51.748;19.620;2023-09-08T13:54:27;28.35;45.92
69006;SHT31;56061;51.748;19.620;2023-09-08T13:56:59;28.39;45.58
69006;SHT31;56061;51.748;19.620;2023-09-08T13:59:33;28.44;44.98
69006;SHT31;56061;51.748;19.620;2023-09-08T14:02:02;28.47;44.80
69006;SHT31;56061;51.748;19.620;2023-09-08T14:04:37;28.52;44.62
69006;SHT31;56061;51.748;19.620;2023-09-08T14:07:07;28.55;44.50
69006;SHT31;56061;51.748;19.620;2023-09-08T14:09:38;28.53;44.45
69006;SHT31;56061;51.748;19.620;2023-09-08T14:12:07;28.45;44.03
69006;SHT31;56061;51.748;19.620;2023-09-08T14:14:37;28.47;44.66
69006;SHT31;56061;51.748;19.620;2023-09-08T14:17:04;28.57;44.97
69006;SHT31;56061;51.748;19.620;2023-09-08T14:19:31;28.62;44.70
69006;SHT31;56061;51.748;19.620;2023-09-08T14:21:58;28.62;44.90
69006;SHT31;56061;51.748;19.620;2023-09-08T14:24:24;28.65;45.02
69006;SHT31;56061;51.748;19.620;2023-09-08T14:26:51;28.72;44.65
69006;SHT31;56061;51.748;19.620;2023-09-08T14:29:18;28.78;45.19
69006;SHT31;56061;51.748;19.620;2023-09-08T14:31:47;28.80;45.05
69006;SHT31;56061;51.748;19.620;2023-09-08T14:34:14;28.82;44.39
69006;SHT31;56061;51.748;19.620;2023-09-08T14:36:41;28.83;45.04
69006;SHT31;56061;51.748;19.620;2023-09-08T14:39:08;28.83;44.68
69006;SHT31;56061;51.748;19.620;2023-09-08T14:41:34;28.84;44.63
69006;SHT31;56061;51.748;19.620;2023-09-08T14:44:01;28.89;44.46
69006;SHT31;56061;51.748;19.620;2023-09-08T14:46:28;28.94;44.78
69006;SHT31;56061;51.748;19.620;2023-09-08T14:48:57;28.98;44.80
69006;SHT31;56061;51.748;19.620;2023-09-08T14:51:24;29.05;44.92
69006;SHT31;56061;51.748;19.620;2023-09-08T14:53:50;29.07;44.27
69006;SHT31;56061;51.748;19.620;2023-09-08T14:56:17;28.99;43.27
69006;SHT31;56061;51.748;19.620;2023-09-08T14:58:43;28.99;43.81
69006;SHT31;56061;51.748;19.620;2023-09-08T15:01:10;29.00;43.75
69006;SHT31;56061;51.748;19.620;2023-09-08T15:03:38;29.03;44.08
69006;SHT31;56061;51.748;19.620;2023-09-08T15:06:05;29.06;43.91
69006;SHT31;56061;51.748;19.620;2023-09-08T15:08:33;29.07;43.57
69006;SHT31;56061;51.748;19.620;2023-09-08T15:10:59;29.09;43.72
69006;SHT31;56061;51.748;19.620;2023-09-08T15:13:26;29.08;43.95
69006;SHT31;56061;51.748;19.620;2023-09-08T15:16:01;29.06;43.95
69006;SHT31;56061;51.748;19.620;2023-09-08T15:18:27;29.02;43.69
69006;SHT31;56061;51.748;19.620;2023-09-08T15:20:54;28.97;44.15
69006;SHT31;56061;51.748;19.620;2023-09-08T15:23:21;28.93;44.38
69006;SHT31;56061;51.748;19.620;2023-09-08T15:26:06;28.88;45.16
69006;SHT31;56061;51.748;19.620;2023-09-08T15:28:32;28.84;45.27
69006;SHT31;56061;51.748;19.620;2023-09-08T15:30:59;28.81;44.98
69006;SHT31;56061;51.748;19.620;2023-09-08T15:33:25;28.79;44.35
69006;SHT31;56061;51.748;19.620;2023-09-08T15:35:52;28.77;44.24